createdAt,value
2022-08-16T00:07:22.485Z,196.60
2022-08-16T00:22:25.152Z,177.88
2022-08-16T00:37:24.593Z,187.10
2022-08-16T00:52:30.384Z,184.09
2022-08-16T01:07:22.526Z,177.20
2022-08-16T01:22:58.952Z,161.59
2022-08-16T01:37:22.538Z,167.54
2022-08-16T01:52:28.105Z,169.42
2022-08-16T02:07:23.457Z,186.45
2022-08-16T02:22:34.072Z,197.98
2022-08-16T02:37:22.557Z,192.00
2022-08-16T02:52:24.971Z,183.62
2022-08-16T03:07:27.612Z,190.64
2022-08-16T03:22:28.649Z,177.97
2022-08-16T03:37:22.491Z,203.56
2022-08-16T03:52:23.474Z,190.50
2022-08-16T04:07:22.853Z,167.57
2022-08-16T04:22:22.518Z,180.89
2022-08-16T04:37:22.654Z,188.43
2022-08-16T04:52:33.268Z,195.05
2022-08-16T05:07:22.571Z,183.08
2022-08-16T05:22:22.753Z,196.93
2022-08-16T05:37:24.559Z,230.69
2022-08-16T05:52:22.642Z,257.93
2022-08-16T06:21:01.760Z,232.92
2022-08-16T06:36:01.782Z,241.21
2022-08-16T06:51:01.966Z,197.92
2022-08-16T07:06:01.920Z,179.43
2022-08-16T07:21:02.419Z,237.32
2022-08-16T07:36:02.171Z,212.51
2022-08-16T07:51:06.886Z,220.12
2022-08-16T08:06:02.098Z,208.01
2022-08-16T08:21:02.220Z,219.96
2022-08-16T08:36:02.199Z,227.41
2022-08-16T08:51:02.857Z,230.77
2022-08-16T09:06:02.233Z,246.59
2022-08-16T09:21:02.371Z,212.72
2022-08-16T09:36:02.419Z,192.72
2022-08-16T09:51:02.345Z,263.19
2022-08-16T10:06:02.741Z,252.37
2022-08-16T10:21:02.482Z,196.38
2022-08-16T10:36:03.655Z,240.22
2022-08-16T10:51:02.719Z,257.33
2022-08-16T11:06:05.945Z,235.20
2022-08-16T11:21:03.118Z,221.41
2022-08-16T11:36:28.544Z,282.72
2022-08-16T11:51:03.480Z,276.94
2022-08-16T12:06:03.368Z,275.73
2022-08-16T12:21:03.829Z,274.46
2022-08-16T12:36:03.482Z,266.34
2022-08-16T12:51:03.947Z,260.58
2022-08-16T13:06:03.537Z,269.07
2022-08-16T13:21:03.692Z,272.67
2022-08-16T13:36:03.659Z,253.42
2022-08-16T13:51:04.231Z,254.64
2022-08-16T14:06:03.689Z,275.72
2022-08-16T14:21:03.700Z,280.99
2022-08-16T14:36:03.762Z,229.07
2022-08-16T14:51:03.691Z,255.05
2022-08-16T15:06:03.750Z,266.70
2022-08-16T15:21:04.484Z,262.12
2022-08-16T15:36:03.705Z,248.64
2022-08-16T15:51:03.975Z,262.16
2022-08-16T16:06:04.029Z,262.84
2022-08-16T16:21:03.841Z,256.25
2022-08-16T16:36:03.856Z,254.85
2022-08-16T16:51:07.318Z,256.13
2022-08-16T17:06:10.129Z,256.45
2022-08-16T17:21:04.061Z,268.91
2022-08-16T17:36:08.539Z,278.59
2022-08-16T17:51:04.095Z,279.26
2022-08-16T18:06:04.217Z,318.27
2022-08-16T18:21:04.231Z,310.94
2022-08-16T18:36:04.503Z,253.56
2022-08-16T18:51:08.414Z,286.36
2022-08-16T19:06:04.631Z,297.63
2022-08-16T19:21:04.451Z,134.63
2022-08-16T19:36:04.575Z,203.07
2022-08-16T19:51:04.602Z,96.42
2022-08-16T20:06:05.577Z,96.74
2022-08-16T20:21:04.557Z,83.49
2022-08-16T20:36:04.459Z,98.42
2022-08-16T20:51:04.602Z,91.29
2022-08-16T21:06:04.692Z,74.55
2022-08-16T21:21:04.737Z,80.24
2022-08-16T21:36:04.865Z,78.01
2022-08-16T21:51:05.056Z,78.97
2022-08-16T22:06:12.976Z,71.92
2022-08-16T22:21:04.988Z,75.85
2022-08-16T22:36:05.037Z,78.83
2022-08-16T22:51:05.005Z,74.21
2022-08-16T23:06:05.041Z,80.25
2022-08-16T23:21:05.092Z,72.84
2022-08-16T23:36:04.943Z,76.27
2022-08-16T23:51:05.198Z,55.21
